sensor_id;sensor_type;location;lat;lon;timestamp;pressure;altitude;pressure_sealevel;temperature;humidity
78613;BME280;67933;51.060;3.638;2023-06-19T00:00:50;101005.59;;;18.55;89.37
78613;BME280;67933;51.060;3.638;2023-06-19T00:03:15;101001.06;;;18.55;89.07
78613;BME280;67933;51.060;3.638;2023-06-19T00:05:41;100999.22;;;18.56;89.18
78613;BME280;67933;51.060;3.638;2023-06-19T00:08:06;100999.13;;;18.57;89.17
78613;BME280;67933;51.060;3.638;2023-06-19T00:10:32;100990.22;;;18.57;89.73
78613;BME280;67933;51.060;3.638;2023-06-19T00:12:58;100993.75;;;18.57;89.17
78613;BME280;67933;51.060;3.638;2023-06-19T00:15:23;101010.19;;;18.64;89.24
78613;BME280;67933;51.060;3.638;2023-06-19T00:17:49;101006.53;;;18.65;89.14
78613;BME280;67933;51.060;3.638;2023-06-19T00:20:14;101010.75;;;18.67;89.27
78613;BME280;67933;51.060;3.638;2023-06-19T00:22:40;101008.06;;;18.67;89.27
78613;BME280;67933;51.060;3.638;2023-06-19T00:25:06;101025.50;;;18.73;89.17
78613;BME280;67933;51.060;3.638;2023-06-19T00:27:32;101027.34;;;18.72;89.17
78613;BME280;67933;51.060;3.638;2023-06-19T00:29:57;101025.09;;;18.77;89.48
78613;BME280;67933;51.060;3.638;2023-06-19T00:32:28;101025.94;;;18.78;89.10
78613;BME280;67933;51.060;3.638;2023-06-19T00:34:53;101024.81;;;18.80;89.45
78613;BME280;67933;51.060;3.638;2023-06-19T00:37:19;101030.03;;;18.82;88.95
78613;BME280;67933;51.060;3.638;2023-06-19T00:39:44;101032.47;;;18.85;89.05
78613;BME280;67933;51.060;3.638;2023-06-19T00:42:10;101033.44;;;18.84;89.14
78613;BME280;67933;51.060;3.638;2023-06-19T00:44:35;101031.59;;;18.84;88.92
78613;BME280;67933;51.060;3.638;2023-06-19T00:47:02;101036.00;;;18.86;88.71
78613;BME280;67933;51.060;3.638;2023-06-19T00:49:29;101026.50;;;18.81;87.45
78613;BME280;67933;51.060;3.638;2023-06-19T00:51:55;101030.88;;;18.82;85.17
78613;BME280;67933;51.060;3.638;2023-06-19T00:54:21;101036.56;;;18.79;84.66
78613;BME280;67933;51.060;3.638;2023-06-19T00:56:46;101039.25;;;18.79;84.39
78613;BME280;67933;51.060;3.638;2023-06-19T00:59:18;101040.94;;;18.80;85.17
78613;BME280;67933;51.060;3.638;2023-06-19T01:01:44;101044.63;;;18.79;84.77
78613;BME280;67933;51.060;3.638;2023-06-19T01:04:10;101051.41;;;18.83;84.23
78613;BME280;67933;51.060;3.638;2023-06-19T01:06:43;101037.41;;;18.80;84.47
78613;BME280;67933;51.060;3.638;2023-06-19T01:09:13;101045.47;;;18.80;84.19
78613;BME280;67933;51.060;3.638;2023-06-19T01:11:48;101044.63;;;18.79;84.31
78613;BME280;67933;51.060;3.638;2023-06-19T01:14:33;101044.63;;;18.79;84.54
78613;BME280;67933;51.060;3.638;2023-06-19T01:17:01;101047.31;;;18.79;84.49
78613;BME280;67933;51.060;3.638;2023-06-19T01:19:27;101051.97;;;18.77;85.21
78613;BME280;67933;51.060;3.638;2023-06-19T01:21:53;101050.00;;;18.79;84.93
78613;BME280;67933;51.060;3.638;2023-06-19T01:24:19;101055.63;;;18.76;85.11
78613;BME280;67933;51.060;3.638;2023-06-19T01:26:44;101061.00;;;18.76;85.26
78613;BME280;67933;51.060;3.638;2023-06-19T01:29:12;101058.59;;;18.73;85.42
78613;BME280;67933;51.060;3.638;2023-06-19T01:34:22;101061.28;;;18.73;85.29
78613;BME280;67933;51.060;3.638;2023-06-19T01:36:50;101062.72;;;18.77;85.13
78613;BME280;67933;51.060;3.638;2023-06-19T01:39:17;101068.22;;;18.76;85.13
78613;BME280;67933;51.060;3.638;2023-06-19T01:41:44;101067.22;;;18.77;84.94
78613;BME280;67933;51.060;3.638;2023-06-19T01:44:10;101077.25;;;18.75;85.27
78613;BME280;67933;51.060;3.638;2023-06-19T01:46:36;101084.75;;;18.71;85.72
78613;BME280;67933;51.060;3.638;2023-06-19T01:49:01;101099.63;;;18.75;86.09
78613;BME280;67933;51.060;3.638;2023-06-19T01:51:26;101093.56;;;18.73;86.25
78613;BME280;67933;51.060;3.638;2023-06-19T01:53:52;101105.66;;;18.68;86.40
78613;BME280;67933;51.060;3.638;2023-06-19T01:56:17;101103.41;;;18.63;86.63
78613;BME280;67933;51.060;3.638;2023-06-19T01:58:43;101110.38;;;18.55;86.19
78613;BME280;67933;51.060;3.638;2023-06-19T02:01:08;101119.09;;;18.47;86.06
78613;BME280;67933;51.060;3.638;2023-06-19T02:03:34;101126.31;;;18.46;85.84
78613;BME280;67933;51.060;3.638;2023-06-19T02:05:59;101134.25;;;18.48;85.38
78613;BME280;67933;51.060;3.638;2023-06-19T02:08:24;101139.44;;;18.40;85.13
78613;BME280;67933;51.060;3.638;2023-06-19T02:10:50;101137.00;;;18.37;85.80
78613;BME280;67933;51.060;3.638;2023-06-19T02:13:15;101136.53;;;18.32;85.43
78613;BME280;67933;51.060;3.638;2023-06-19T02:15:40;101148.50;;;18.28;85.19
78613;BME280;67933;51.060;3.638;2023-06-19T02:18:06;101149.78;;;18.24;85.93
78613;BME280;67933;51.060;3.638;2023-06-19T02:20:32;101148.06;;;18.23;84.94
78613;BME280;67933;51.060;3.638;2023-06-19T02:22:58;101143.66;;;18.22;85.83
78613;BME280;67933;51.060;3.638;2023-06-19T02:25:23;101142.25;;;18.18;85.56
78613;BME280;67933;51.060;3.638;2023-06-19T02:27:48;101157.50;;;18.17;85.31
78613;BME280;67933;51.060;3.638;2023-06-19T02:30:14;101153.63;;;18.10;85.22
78613;BME280;67933;51.060;3.638;2023-06-19T02:32:39;101164.63;;;18.07;86.26
78613;BME280;67933;51.060;3.638;2023-06-19T02:35:07;101164.91;;;18.04;86.66
78613;BME280;67933;51.060;3.638;2023-06-19T02:37:35;101162.91;;;18.06;86.57
78613;BME280;67933;51.060;3.638;2023-06-19T02:40:03;101163.53;;;18.10;86.11
78613;BME280;67933;51.060;3.638;2023-06-19T02:42:28;101170.38;;;18.02;85.20
78613;BME280;67933;51.060;3.638;2023-06-19T02:44:54;101178.31;;;18.04;84.84
78613;BME280;67933;51.060;3.638;2023-06-19T02:47:19;101170.50;;;18.01;84.91
78613;BME280;67933;51.060;3.638;2023-06-19T02:49:44;101174.06;;;17.90;84.69
78613;BME280;67933;51.060;3.638;2023-06-19T02:52:10;101181.91;;;17.82;84.90
78613;BME280;67933;51.060;3.638;2023-06-19T02:54:35;101175.00;;;17.68;85.13
78613;BME280;67933;51.060;3.638;2023-06-19T02:57:01;101190.97;;;17.59;85.18
78613;BME280;67933;51.060;3.638;2023-06-19T02:59:26;101188.53;;;17.45;85.36
78613;BME280;67933;51.060;3.638;2023-06-19T03:01:51;101180.03;;;17.28;86.19
78613;BME280;67933;51.060;3.638;2023-06-19T03:04:17;101186.63;;;17.13;86.56
78613;BME280;67933;51.060;3.638;2023-06-19T03:06:42;101181.97;;;17.04;87.08
78613;BME280;67933;51.060;3.638;2023-06-19T03:09:08;101196.13;;;16.95;87.29
78613;BME280;67933;51.060;3.638;2023-06-19T03:11:43;101203.91;;;16.87;87.55
78613;BME280;67933;51.060;3.638;2023-06-19T03:14:08;101215.34;;;16.78;87.81
78613;BME280;67933;51.060;3.638;2023-06-19T03:16:34;101207.53;;;16.75;88.17
78613;BME280;67933;51.060;3.638;2023-06-19T03:19:00;101208.75;;;16.71;88.16
78613;BME280;67933;51.060;3.638;2023-06-19T03:21:26;101216.44;;;16.64;88.06
78613;BME280;67933;51.060;3.638;2023-06-19T03:23:51;101225.72;;;16.59;88.18
78613;BME280;67933;51.060;3.638;2023-06-19T03:26:19;101227.91;;;16.53;88.51
78613;BME280;67933;51.060;3.638;2023-06-19T03:28:44;101227.75;;;16.44;88.92
78613;BME280;67933;51.060;3.638;2023-06-19T03:31:11;101228.72;;;16.43;89.19
78613;BME280;67933;51.060;3.638;2023-06-19T03:33:37;101236.03;;;16.41;88.67
78613;BME280;67933;51.060;3.638;2023-06-19T03:36:02;101234.66;;;16.35;89.00
78613;BME280;67933;51.060;3.638;2023-06-19T03:38:28;101225.28;;;16.30;89.14
78613;BME280;67933;51.060;3.638;2023-06-19T03:40:54;101234.28;;;16.29;89.52
78613;BME280;67933;51.060;3.638;2023-06-19T03:43:19;101243.91;;;16.31;89.21
78613;BME280;67933;51.060;3.638;2023-06-19T03:45:45;101254.84;;;16.28;89.41
78613;BME280;67933;51.060;3.638;2023-06-19T03:48:10;101259.34;;;16.28;89.07
78613;BME280;67933;51.060;3.638;2023-06-19T03:50:35;101255.09;;;16.25;88.85
78613;BME280;67933;51.060;3.638;2023-06-19T03:53:01;101262.38;;;16.23;88.52
78613;BME280;67933;51.060;3.638;2023-06-19T03:55:26;101259.50;;;16.13;88.83
78613;BME280;67933;51.060;3.638;2023-06-19T03:57:51;101261.69;;;16.08;89.31
78613;BME280;67933;51.060;3.638;2023-06-19T04:00:18;101272.00;;;16.02;89.64
78613;BME280;67933;51.060;3.638;2023-06-19T04:02:44;101272.97;;;16.01;89.60
78613;BME280;67933;51.060;3.638;2023-06-19T04:05:13;101277.84;;;16.07;89.55
78613;BME280;67933;51.060;3.638;2023-06-19T04:07:39;101291.06;;;16.21;89.09
78613;BME280;67933;51.060;3.638;2023-06-19T04:10:05;101284.81;;;16.33;87.98
78613;BME280;67933;51.060;3.638;2023-06-19T04:12:30;101283.59;;;16.37;87.97
78613;BME280;67933;51.060;3.638;2023-06-19T04:14:56;101289.72;;;16.39;85.85
78613;BME280;67933;51.060;3.638;2023-06-19T04:17:21;101286.06;;;16.40;86.21
78613;BME280;67933;51.060;3.638;2023-06-19T04:19:47;101292.28;;;16.41;85.58
78613;BME280;67933;51.060;3.638;2023-06-19T04:22:12;101289.47;;;16.42;85.15
78613;BME280;67933;51.060;3.638;2023-06-19T04:24:37;101293.13;;;16.41;84.79
78613;BME280;67933;51.060;3.638;2023-06-19T04:27:03;101292.13;;;16.42;84.88
78613;BME280;67933;51.060;3.638;2023-06-19T04:29:28;101302.13;;;16.40;85.05
78613;BME280;67933;51.060;3.638;2023-06-19T04:31:59;101297.50;;;16.42;84.25
78613;BME280;67933;51.060;3.638;2023-06-19T04:34:25;101292.13;;;16.42;84.33
78613;BME280;67933;51.060;3.638;2023-06-19T04:36:51;101295.66;;;16.43;84.10
78613;BME280;67933;51.060;3.638;2023-06-19T04:39:16;101297.91;;;16.49;84.12
78613;BME280;67933;51.060;3.638;2023-06-19T04:41:45;101295.47;;;16.46;84.04
78613;BME280;67933;51.060;3.638;2023-06-19T04:44:10;101292.19;;;16.53;84.21
78613;BME280;67933;51.060;3.638;2023-06-19T04:46:38;101304.00;;;16.51;83.77
78613;BME280;67933;51.060;3.638;2023-06-19T04:49:05;101302.16;;;16.51;83.58
78613;BME280;67933;51.060;3.638;2023-06-19T04:51:31;101306.09;;;16.59;83.28
78613;BME280;67933;51.060;3.638;2023-06-19T04:53:58;101302.00;;;16.66;83.30
78613;BME280;67933;51.060;3.638;2023-06-19T04:56:24;101305.22;;;16.71;83.03
78613;BME280;67933;51.060;3.638;2023-06-19T04:58:49;101298.75;;;16.73;82.31
78613;BME280;67933;51.060;3.638;2023-06-19T05:01:16;101303.78;;;16.78;82.10
78613;BME280;67933;51.060;3.638;2023-06-19T05:03:44;101308.16;;;16.79;82.56
78613;BME280;67933;51.060;3.638;2023-06-19T05:06:12;101317.44;;;16.86;82.76
78613;BME280;67933;51.060;3.638;2023-06-19T05:08:38;101308.16;;;16.79;82.51
78613;BME280;67933;51.060;3.638;2023-06-19T05:11:03;101320.25;;;16.84;82.43
78613;BME280;67933;51.060;3.638;2023-06-19T05:13:29;101314.03;;;16.84;82.05
78613;BME280;67933;51.060;3.638;2023-06-19T05:15:54;101325.72;;;16.83;82.74
78613;BME280;67933;51.060;3.638;2023-06-19T05:18:21;101317.44;;;16.86;82.48
78613;BME280;67933;51.060;3.638;2023-06-19T05:20:46;101320.47;;;16.81;82.42
78613;BME280;67933;51.060;3.638;2023-06-19T05:23:12;101318.16;;;16.88;81.84
78613;BME280;67933;51.060;3.638;2023-06-19T05:25:37;101320.50;;;16.92;82.59
78613;BME280;67933;51.060;3.638;2023-06-19T05:28:03;101328.19;;;16.97;81.90
78613;BME280;67933;51.060;3.638;2023-06-19T05:30:29;101316.38;;;17.00;82.08
78613;BME280;67933;51.060;3.638;2023-06-19T05:32:54;101308.97;;;17.14;81.87
78613;BME280;67933;51.060;3.638;2023-06-19T05:35:19;101320.06;;;17.21;81.72
78613;BME280;67933;51.060;3.638;2023-06-19T05:37:45;101321.94;;;17.31;81.08
78613;BME280;67933;51.060;3.638;2023-06-19T05:40:10;101319.47;;;17.28;80.64
78613;BME280;67933;51.060;3.638;2023-06-19T05:42:36;101325.34;;;17.34;80.43
78613;BME280;67933;51.060;3.638;2023-06-19T05:45:05;101328.53;;;17.39;79.82
78613;BME280;67933;51.060;3.638;2023-06-19T05:47:30;101323.13;;;17.27;80.06
78613;BME280;67933;51.060;3.638;2023-06-19T05:49:59;101326.31;;;17.33;80.87
78613;BME280;67933;51.060;3.638;2023-06-19T05:52:24;101329.13;;;17.42;79.74
78613;BME280;67933;51.060;3.638;2023-06-19T05:54:50;101336.34;;;17.42;79.16
78613;BME280;67933;51.060;3.638;2023-06-19T05:57:17;101341.09;;;17.49;80.30
78613;BME280;67933;51.060;3.638;2023-06-19T05:59:46;101342.91;;;17.60;78.95
78613;BME280;67933;51.060;3.638;2023-06-19T06:02:12;101348.59;;;17.79;79.22
78613;BME280;67933;51.060;3.638;2023-06-19T06:04:37;101357.59;;;17.78;78.16
78613;BME280;67933;51.060;3.638;2023-06-19T06:07:04;101360.41;;;17.77;78.53
78613;BME280;67933;51.060;3.638;2023-06-19T06:09:30;101362.72;;;17.81;77.56
78613;BME280;67933;51.060;3.638;2023-06-19T06:11:56;101363.56;;;17.82;78.37
78613;BME280;67933;51.060;3.638;2023-06-19T06:14:21;101371.78;;;17.80;78.54
78613;BME280;67933;51.060;3.638;2023-06-19T06:16:46;101372.00;;;17.77;78.78
78613;BME280;67933;51.060;3.638;2023-06-19T06:19:12;101375.16;;;17.82;77.63
78613;BME280;67933;51.060;3.638;2023-06-19T06:21:37;101378.94;;;17.91;77.98
78613;BME280;67933;51.060;3.638;2023-06-19T06:24:03;101375.88;;;18.06;77.63
78613;BME280;67933;51.060;3.638;2023-06-19T06:26:28;101384.91;;;18.17;77.43
78613;BME280;67933;51.060;3.638;2023-06-19T06:28:54;101377.56;;;18.30;75.11
78613;BME280;67933;51.060;3.638;2023-06-19T06:31:22;101376.34;;;18.34;75.68
78613;BME280;67933;51.060;3.638;2023-06-19T06:33:47;101387.66;;;18.49;75.83
78613;BME280;67933;51.060;3.638;2023-06-19T06:36:14;101393.28;;;18.45;75.61
78613;BME280;67933;51.060;3.638;2023-06-19T06:38:40;101401.69;;;18.52;75.29
78613;BME280;67933;51.060;3.638;2023-06-19T06:41:05;101390.47;;;18.47;75.48
78613;BME280;67933;51.060;3.638;2023-06-19T06:43:31;101393.69;;;18.41;74.79
78613;BME280;67933;51.060;3.638;2023-06-19T06:45:56;101394.59;;;18.51;75.24
78613;BME280;67933;51.060;3.638;2023-06-19T06:48:21;101402.81;;;18.61;75.66
78613;BME280;67933;51.060;3.638;2023-06-19T06:50:47;101397.00;;;18.88;74.61
78613;BME280;67933;51.060;3.638;2023-06-19T06:53:13;101412.59;;;18.94;74.35
78613;BME280;67933;51.060;3.638;2023-06-19T06:55:38;101412.69;;;18.71;74.39
78613;BME280;67933;51.060;3.638;2023-06-19T06:58:03;101413.91;;;18.67;74.71
78613;BME280;67933;51.060;3.638;2023-06-19T07:00:30;101419.31;;;18.56;74.88
78613;BME280;67933;51.060;3.638;2023-06-19T07:02:56;101413.91;;;18.67;74.29
78613;BME280;67933;51.060;3.638;2023-06-19T07:05:22;101424.25;;;18.83;73.86
78613;BME280;67933;51.060;3.638;2023-06-19T07:07:47;101422.25;;;19.49;71.49
78613;BME280;67933;51.060;3.638;2023-06-19T07:10:13;101423.47;;;19.45;70.61
78613;BME280;67933;51.060;3.638;2023-06-19T07:12:46;101434.44;;;19.32;71.07
78613;BME280;67933;51.060;3.638;2023-06-19T07:15:11;101443.56;;;19.41;72.43
78613;BME280;67933;51.060;3.638;2023-06-19T07:17:37;101436.78;;;19.26;73.06
78613;BME280;67933;51.060;3.638;2023-06-19T07:20:02;101431.00;;;19.30;72.20
78613;BME280;67933;51.060;3.638;2023-06-19T07:22:28;101444.41;;;19.41;71.92
78613;BME280;67933;51.060;3.638;2023-06-19T07:24:54;101441.19;;;19.27;71.24
78613;BME280;67933;51.060;3.638;2023-06-19T07:27:19;101442.59;;;19.10;72.25
78613;BME280;67933;51.060;3.638;2023-06-19T07:29:44;101444.88;;;19.26;71.83
78613;BME280;67933;51.060;3.638;2023-06-19T07:32:10;101442.97;;;19.37;71.48
78613;BME280;67933;51.060;3.638;2023-06-19T07:34:35;101449.25;;;19.58;70.73
78613;BME280;67933;51.060;3.638;2023-06-19T07:37:01;101450.22;;;19.57;71.13
78613;BME280;67933;51.060;3.638;2023-06-19T07:39:26;101448.78;;;19.53;70.71
78613;BME280;67933;51.060;3.638;2023-06-19T07:41:51;101441.22;;;19.68;69.97
78613;BME280;67933;51.060;3.638;2023-06-19T07:44:17;101446.78;;;19.76;70.19
78613;BME280;67933;51.060;3.638;2023-06-19T07:46:43;101435.34;;;19.84;70.34
78613;BME280;67933;51.060;3.638;2023-06-19T07:49:09;101430.63;;;19.97;69.54
78613;BME280;67933;51.060;3.638;2023-06-19T07:51:34;101427.06;;;20.27;68.41
78613;BME280;67933;51.060;3.638;2023-06-19T07:53:59;101426.47;;;20.23;67.87
78613;BME280;67933;51.060;3.638;2023-06-19T07:56:25;101422.09;;;20.32;67.27
78613;BME280;67933;51.060;3.638;2023-06-19T07:58:50;101416.25;;;20.77;67.16
78613;BME280;67933;51.060;3.638;2023-06-19T08:01:15;101416.31;;;21.05;66.36
78613;BME280;67933;51.060;3.638;2023-06-19T08:03:42;101421.56;;;21.17;64.85
78613;BME280;67933;51.060;3.638;2023-06-19T08:06:07;101433.78;;;21.40;63.92
78613;BME280;67933;51.060;3.638;2023-06-19T08:08:33;101433.56;;;22.26;62.46
78613;BME280;67933;51.060;3.638;2023-06-19T08:10:58;101450.00;;;22.06;62.73
78613;BME280;67933;51.060;3.638;2023-06-19T08:13:23;101445.41;;;21.60;64.04
78613;BME280;67933;51.060;3.638;2023-06-19T08:15:49;101446.53;;;21.09;64.64
78613;BME280;67933;51.060;3.638;2023-06-19T08:18:14;101446.22;;;20.83;65.93
78613;BME280;67933;51.060;3.638;2023-06-19T08:20:40;101447.38;;;21.09;65.85
78613;BME280;67933;51.060;3.638;2023-06-19T08:23:05;101447.56;;;21.37;66.43
78613;BME280;67933;51.060;3.638;2023-06-19T08:25:43;101450.28;;;21.37;63.84
78613;BME280;67933;51.060;3.638;2023-06-19T08:28:20;101459.31;;;20.97;66.04
78613;BME280;67933;51.060;3.638;2023-06-19T08:30:45;101442.03;;;21.29;64.35
78613;BME280;67933;51.060;3.638;2023-06-19T08:33:13;101444.72;;;22.41;61.79
78613;BME280;67933;51.060;3.638;2023-06-19T08:35:39;101445.22;;;22.82;58.75
78613;BME280;67933;51.060;3.638;2023-06-19T08:38:04;101448.84;;;23.44;57.12
78613;BME280;67933;51.060;3.638;2023-06-19T08:40:30;101445.00;;;23.72;55.53
78613;BME280;67933;51.060;3.638;2023-06-19T08:42:56;101443.94;;;23.65;55.91
78613;BME280;67933;51.060;3.638;2023-06-19T08:45:22;101454.06;;;24.06;54.36
78613;BME280;67933;51.060;3.638;2023-06-19T08:47:48;101455.53;;;24.27;54.75
78613;BME280;67933;51.060;3.638;2023-06-19T08:50:15;101452.03;;;23.83;56.61
78613;BME280;67933;51.060;3.638;2023-06-19T08:52:41;101457.56;;;23.73;55.93
78613;BME280;67933;51.060;3.638;2023-06-19T08:55:06;101445.72;;;23.38;55.77
78613;BME280;67933;51.060;3.638;2023-06-19T08:57:37;101449.63;;;24.05;55.78
78613;BME280;67933;51.060;3.638;2023-06-19T09:00:03;101455.28;;;23.86;54.17
78613;BME280;67933;51.060;3.638;2023-06-19T09:02:42;101454.31;;;24.63;52.83
78613;BME280;67933;51.060;3.638;2023-06-19T09:05:12;101451.72;;;24.96;51.79
78613;BME280;67933;51.060;3.638;2023-06-19T09:07:38;101456.66;;;24.92;51.53
78613;BME280;67933;51.060;3.638;2023-06-19T09:10:17;101459.59;;;25.23;51.86
78613;BME280;67933;51.060;3.638;2023-06-19T09:13:03;101463.88;;;24.75;50.70
78613;BME280;67933;51.060;3.638;2023-06-19T09:15:36;101464.56;;;24.35;51.86
78613;BME280;67933;51.060;3.638;2023-06-19T09:18:03;101470.06;;;24.51;51.03
78613;BME280;67933;51.060;3.638;2023-06-19T09:20:29;101466.53;;;25.25;50.11
78613;BME280;67933;51.060;3.638;2023-06-19T09:22:58;101465.69;;;25.57;48.92
78613;BME280;67933;51.060;3.638;2023-06-19T09:25:24;101467.63;;;26.20;47.52
78613;BME280;67933;51.060;3.638;2023-06-19T09:27:53;101466.38;;;25.76;46.86
78613;BME280;67933;51.060;3.638;2023-06-19T09:30:19;101459.41;;;25.41;49.04
78613;BME280;67933;51.060;3.638;2023-06-19T09:32:44;101456.97;;;26.02;46.80
78613;BME280;67933;51.060;3.638;2023-06-19T09:35:10;101462.19;;;26.28;46.43
78613;BME280;67933;51.060;3.638;2023-06-19T09:37:38;101468.28;;;26.38;45.06
78613;BME280;67933;51.060;3.638;2023-06-19T09:40:05;101465.88;;;26.43;43.87
78613;BME280;67933;51.060;3.638;2023-06-19T09:42:38;101460.34;;;26.13;44.58
78613;BME280;67933;51.060;3.638;2023-06-19T09:45:06;101461.84;;;26.39;46.13
78613;BME280;67933;51.060;3.638;2023-06-19T09:47:52;101460.59;;;25.54;48.09
78613;BME280;67933;51.060;3.638;2023-06-19T09:50:22;101462.06;;;26.14;45.82
78613;BME280;67933;51.060;3.638;2023-06-19T09:52:48;101472.91;;;26.69;45.29
78613;BME280;67933;51.060;3.638;2023-06-19T09:55:18;101467.00;;;27.42;42.09
78613;BME280;67933;51.060;3.638;2023-06-19T09:57:44;101449.19;;;28.36;40.39
78613;BME280;67933;51.060;3.638;2023-06-19T10:00:11;101448.19;;;27.09;42.68
78613;BME280;67933;51.060;3.638;2023-06-19T10:02:48;101454.81;;;27.75;41.96
78613;BME280;67933;51.060;3.638;2023-06-19T10:05:14;101450.53;;;28.10;41.31
78613;BME280;67933;51.060;3.638;2023-06-19T10:07:43;101457.38;;;27.91;41.86
78613;BME280;67933;51.060;3.638;2023-06-19T10:10:11;101453.44;;;28.38;40.43
78613;BME280;67933;51.060;3.638;2023-06-19T10:12:45;101454.41;;;28.81;39.96
78613;BME280;67933;51.060;3.638;2023-06-19T10:15:24;101452.28;;;27.88;42.41
78613;BME280;67933;51.060;3.638;2023-06-19T10:18:01;101461.06;;;28.43;41.93
78613;BME280;67933;51.060;3.638;2023-06-19T10:20:31;101455.75;;;29.28;39.83
78613;BME280;67933;51.060;3.638;2023-06-19T10:23:07;101454.78;;;29.84;37.75
78613;BME280;67933;51.060;3.638;2023-06-19T10:25:36;101456.63;;;30.81;35.38
78613;BME280;67933;51.060;3.638;2023-06-19T10:28:03;101455.13;;;29.26;38.46
78613;BME280;67933;51.060;3.638;2023-06-19T10:30:32;101451.59;;;29.53;37.94
78613;BME280;67933;51.060;3.638;2023-06-19T10:32:59;101451.25;;;29.91;36.20
78613;BME280;67933;51.060;3.638;2023-06-19T10:35:29;101451.78;;;29.52;38.59
78613;BME280;67933;51.060;3.638;2023-06-19T10:38:03;101444.34;;;29.67;35.99
78613;BME280;67933;51.060;3.638;2023-06-19T10:40:28;101462.38;;;28.97;37.17
78613;BME280;67933;51.060;3.638;2023-06-19T10:42:54;101449.44;;;29.27;37.57
78613;BME280;67933;51.060;3.638;2023-06-19T10:45:19;101451.94;;;29.43;36.85
78613;BME280;67933;51.060;3.638;2023-06-19T10:47:46;101454.72;;;29.07;38.20
78613;BME280;67933;51.060;3.638;2023-06-19T10:50:15;101451.25;;;30.18;34.46
78613;BME280;67933;51.060;3.638;2023-06-19T10:52:46;101449.13;;;31.16;34.31
78613;BME280;67933;51.060;3.638;2023-06-19T10:55:14;101440.94;;;31.42;33.13
78613;BME280;67933;51.060;3.638;2023-06-19T10:57:43;101437.97;;;31.90;33.05
78613;BME280;67933;51.060;3.638;2023-06-19T11:00:10;101449.78;;;31.18;33.01
78613;BME280;67933;51.060;3.638;2023-06-19T11:02:40;101447.69;;;31.26;33.61
78613;BME280;67933;51.060;3.638;2023-06-19T11:05:11;101444.09;;;31.59;33.69
78613;BME280;67933;51.060;3.638;2023-06-19T11:07:37;101445.19;;;31.64;33.12
78613;BME280;67933;51.060;3.638;2023-06-19T11:10:03;101441.75;;;31.23;33.50
78613;BME280;67933;51.060;3.638;2023-06-19T11:12:31;101451.50;;;30.58;34.69
78613;BME280;67933;51.060;3.638;2023-06-19T11:14:57;101443.03;;;30.53;35.34
78613;BME280;67933;51.060;3.638;2023-06-19T11:17:24;101441.78;;;31.56;33.88
78613;BME280;67933;51.060;3.638;2023-06-19T11:19:50;101444.81;;;30.74;33.76
78613;BME280;67933;51.060;3.638;2023-06-19T11:22:16;101455.31;;;30.70;34.44
78613;BME280;67933;51.060;3.638;2023-06-19T11:24:45;101449.34;;;31.08;35.41
78613;BME280;67933;51.060;3.638;2023-06-19T11:27:22;101440.28;;;31.53;33.07
78613;BME280;67933;51.060;3.638;2023-06-19T11:29:56;101440.88;;;32.28;33.04
78613;BME280;67933;51.060;3.638;2023-06-19T11:32:29;101453.03;;;28.70;38.42
78613;BME280;67933;51.060;3.638;2023-06-19T11:34:56;101455.66;;;28.79;39.46
78613;BME280;67933;51.060;3.638;2023-06-19T11:37:23;101451.25;;;30.18;36.08
78613;BME280;67933;51.060;3.638;2023-06-19T11:39:50;101452.28;;;28.98;39.10
78613;BME280;67933;51.060;3.638;2023-06-19T11:42:17;101448.03;;;28.59;39.28
78613;BME280;67933;51.060;3.638;2023-06-19T11:44:56;101450.47;;;28.69;39.06
78613;BME280;67933;51.060;3.638;2023-06-19T11:47:22;101440.69;;;30.50;36.30
78613;BME280;67933;51.060;3.638;2023-06-19T11:49:48;101444.28;;;31.31;34.47
78613;BME280;67933;51.060;3.638;2023-06-19T11:52:14;101437.97;;;31.77;32.99
78613;BME280;67933;51.060;3.638;2023-06-19T11:54:40;101435.84;;;31.46;33.38
78613;BME280;67933;51.060;3.638;2023-06-19T11:57:05;101437.34;;;29.85;35.33
78613;BME280;67933;51.060;3.638;2023-06-19T11:59:31;101441.81;;;27.40;39.90
78613;BME280;67933;51.060;3.638;2023-06-19T12:01:56;101443.31;;;27.80;41.23
78613;BME280;67933;51.060;3.638;2023-06-19T12:04:24;101438.25;;;29.01;37.96
78613;BME280;67933;51.060;3.638;2023-06-19T12:06:49;101434.88;;;30.66;36.17
78613;BME280;67933;51.060;3.638;2023-06-19T12:09:15;101422.16;;;31.26;33.47
78613;BME280;67933;51.060;3.638;2023-06-19T12:11:40;101425.34;;;30.21;35.69
78613;BME280;67933;51.060;3.638;2023-06-19T12:14:06;101427.56;;;30.93;34.38
78613;BME280;67933;51.060;3.638;2023-06-19T12:16:31;101434.53;;;32.07;32.46
78613;BME280;67933;51.060;3.638;2023-06-19T12:18:58;101421.28;;;31.98;32.18
78613;BME280;67933;51.060;3.638;2023-06-19T12:21:24;101430.69;;;30.83;32.81
78613;BME280;67933;51.060;3.638;2023-06-19T12:23:50;101433.44;;;30.83;32.99
78613;BME280;67933;51.060;3.638;2023-06-19T12:26:16;101427.03;;;30.15;34.13
78613;BME280;67933;51.060;3.638;2023-06-19T12:28:41;101416.03;;;30.09;34.31
78613;BME280;67933;51.060;3.638;2023-06-19T12:31:07;101431.13;;;29.98;34.37
78613;BME280;67933;51.060;3.638;2023-06-19T12:33:32;101424.13;;;30.23;32.87
78613;BME280;67933;51.060;3.638;2023-06-19T12:35:58;101413.69;;;31.21;33.08
78613;BME280;67933;51.060;3.638;2023-06-19T12:38:23;101415.63;;;31.73;30.63
78613;BME280;67933;51.060;3.638;2023-06-19T12:40:49;101407.28;;;32.26;30.90
78613;BME280;67933;51.060;3.638;2023-06-19T12:43:14;101403.94;;;32.62;31.88
78613;BME280;67933;51.060;3.638;2023-06-19T12:45:40;101406.50;;;30.46;32.54
78613;BME280;67933;51.060;3.638;2023-06-19T12:48:06;101407.41;;;28.86;35.21
78613;BME280;67933;51.060;3.638;2023-06-19T12:50:32;101403.88;;;29.13;37.64